Time;durP1;ratioP1;P1;durP2;ratioP2;P2;SDS_P1;SDS_P2;PMS_P1;PMS_P2;Temp;Humidity;BMP_temperature;BMP_pressure;BME280_temperature;BME280_humidity;BME280_pressure;Samples;Min_cycle;Max_cycle;Signal;HPM_P1;HPM_P2
2022/07/20 00:00:40;;;;;;;3.37;2.72;;;;;;;16.88;99.66;100713.59;1721802;82;21584;-71
2022/07/20 00:03:11;;;;;;;3.45;3.08;;;;;;;16.82;99.75;100713.60;1716120;82;21027;-70
2022/07/20 00:05:40;;;;;;;3.05;2.85;;;;;;;16.78;99.89;100713.22;1726283;82;21546;-71
2022/07/20 00:08:09;;;;;;;4.10;3.20;;;;;;;16.74;99.91;100718.74;1713855;82;21003;-69
2022/07/20 00:13:23;;;;;;;2.50;2.40;;;;;;;16.70;100.00;100705.42;1724267;82;21054;-70
2022/07/20 00:15:50;;;;;;;2.35;2.20;;;;;;;16.70;100.00;100701.39;1719442;82;21033;-70
2022/07/20 00:18:18;;;;;;;2.77;2.58;;;;;;;16.69;100.00;100695.72;1712442;82;21030;-69
2022/07/20 00:20:44;;;;;;;2.83;2.58;;;;;;;16.69;100.00;100705.95;1718425;82;21030;-71
2022/07/20 00:23:10;;;;;;;2.62;2.42;;;;;;;16.68;100.00;100703.48;1705117;82;21021;-71
2022/07/20 00:25:36;;;;;;;3.17;2.90;;;;;;;16.61;100.00;100702.17;1707323;82;21008;-70
2022/07/20 00:28:03;;;;;;;;;;;;;;;16.58;100.00;100699.13;1725798;82;21034;-70
2022/07/20 00:30:29;;;;;;;3.00;2.70;;;;;;;16.55;100.00;100699.84;1719508;82;20128;-71
2022/07/20 00:32:56;;;;;;;2.33;2.22;;;;;;;16.49;100.00;100704.76;1722320;82;21002;-70
2022/07/20 00:35:23;;;;;;;3.42;2.90;;;;;;;16.49;100.00;100695.34;1709815;82;21029;-70
2022/07/20 00:37:49;;;;;;;2.87;2.58;;;;;;;16.49;100.00;100699.38;1723876;82;21014;-70
2022/07/20 00:40:15;;;;;;;;;;;;;;;16.48;100.00;100696.40;1726853;82;21004;-71
2022/07/20 00:42:42;;;;;;;2.65;2.50;;;;;;;16.42;100.00;100694.56;1718228;82;20111;-70
2022/07/20 00:45:10;;;;;;;3.08;2.87;;;;;;;16.42;100.00;100694.56;1714250;82;21286;-69
2022/07/20 00:47:38;;;;;;;2.62;2.50;;;;;;;16.40;100.00;100692.61;1715510;82;21074;-70
2022/07/20 00:50:07;;;;;;;3.10;2.90;;;;;;;16.39;100.00;100696.36;1715093;82;21099;-69
2022/07/20 00:52:35;;;;;;;4.20;3.80;;;;;;;16.36;100.00;100687.37;1716891;82;21054;-69
2022/07/20 00:55:02;;;;;;;3.02;2.83;;;;;;;16.34;100.00;100692.14;1727294;82;21015;-70
2022/07/20 00:57:29;;;;;;;3.47;3.27;;;;;;;16.35;100.00;100689.77;1714069;82;21620;-70
2022/07/20 00:59:55;;;;;;;3.30;3.10;;;;;;;16.33;100.00;100686.45;1687957;82;21053;-69
2022/07/20 01:02:21;;;;;;;;;;;;;;;16.30;100.00;100683.69;1739203;82;21045;-69
2022/07/20 01:04:47;;;;;;;3.95;3.75;;;;;;;16.22;100.00;100685.80;1713677;82;20142;-69
2022/07/20 01:07:14;;;;;;;4.37;4.10;;;;;;;16.22;100.00;100685.80;1735597;82;21615;-69
2022/07/20 01:09:41;;;;;;;4.50;4.15;;;;;;;16.21;100.00;100685.52;1736316;81;20991;-69
2022/07/20 01:12:10;;;;;;;4.42;4.12;;;;;;;16.19;100.00;100686.25;1737122;82;21003;-69
2022/07/20 01:14:36;;;;;;;4.35;4.15;;;;;;;16.17;100.00;100682.95;1741630;82;21121;-69
2022/07/20 01:17:03;;;;;;;5.45;5.05;;;;;;;16.10;100.00;100684.33;1739530;82;21546;-69
2022/07/20 01:19:30;;;;;;;5.58;5.17;;;;;;;16.00;100.00;100688.84;1740325;82;21082;-69
2022/07/20 01:21:57;;;;;;;7.20;6.60;;;;;;;15.97;100.00;100690.60;1741111;82;21094;-69
2022/07/20 01:24:23;;;;;;;;;;;;;;;15.97;100.00;100690.60;1706584;81;21640;-70
2022/07/20 01:26:49;;;;;;;8.30;7.55;;;;;;;15.93;100.00;100694.77;1636829;86;20457;-70
2022/07/20 01:29:15;;;;;;;8.60;7.95;;;;;;;15.87;100.00;100694.29;1637316;86;21038;-70
2022/07/20 01:31:42;;;;;;;;;;;;;;;15.85;100.00;100691.81;1616871;88;21066;-70
2022/07/20 01:34:08;;;;;;;8.60;7.97;;;;;;;15.85;100.00;100692.34;1638770;87;20136;-69
2022/07/20 01:36:34;;;;;;;9.25;8.35;;;;;;;15.85;100.00;100692.34;1613975;87;21097;-70
2022/07/20 01:39:00;;;;;;;9.00;8.30;;;;;;;15.87;100.00;100691.60;1690077;83;21511;-69
2022/07/20 01:41:26;;;;;;;9.18;8.58;;;;;;;15.89;100.00;100694.89;1689092;83;21097;-70
2022/07/20 01:43:53;;;;;;;10.28;9.50;;;;;;;15.93;100.00;100698.27;1683568;83;21038;-70
2022/07/20 01:46:19;;;;;;;10.90;9.80;;;;;;;15.93;100.00;100698.27;1735104;81;21057;-70
2022/07/20 01:48:45;;;;;;;;;;;;;;;15.95;100.00;100694.87;1738307;82;21093;-70
2022/07/20 01:51:11;;;;;;;10.38;9.38;;;;;;;15.96;100.00;100684.41;1746809;81;20157;-70
2022/07/20 01:53:37;;;;;;;9.58;8.70;;;;;;;15.93;100.00;100692.08;1743842;81;21029;-70
2022/07/20 01:56:06;;;;;;;8.65;7.92;;;;;;;15.99;100.00;100698.46;1743625;81;20982;-70
2022/07/20 01:58:32;;;;;;;8.20;7.60;;;;;;;15.99;100.00;100698.46;1737801;81;21040;-70
2022/07/20 02:00:59;;;;;;;7.80;7.20;;;;;;;15.97;100.00;100695.98;1731507;81;20997;-70
2022/07/20 02:03:25;;;;;;;7.62;7.12;;;;;;;15.97;100.00;100695.98;1739469;81;21089;-69
2022/07/20 02:05:51;;;;;;;;;;;;;;;15.95;100.00;100694.03;1717933;81;21015;-70
2022/07/20 02:08:17;;;;;;;7.05;5.78;;;;;;;15.94;100.00;100699.94;1740725;81;20138;-69
2022/07/20 02:10:43;;;;;;;;;;;;;;;15.88;100.00;100694.58;1748795;81;21076;-69
2022/07/20 02:13:09;;;;;;;6.17;5.78;;;;;;;15.86;100.00;100689.94;1745716;81;20126;-69
2022/07/20 02:18:22;;;;;;;6.45;5.95;;;;;;;15.91;100.00;100701.70;1747979;81;21022;-68
2022/07/20 02:20:49;;;;;;;6.03;5.62;;;;;;;15.93;100.00;100692.08;1740797;81;21034;-69
2022/07/20 02:23:15;;;;;;;5.67;5.37;;;;;;;15.95;100.00;100686.81;1717150;81;21027;-70
2022/07/20 02:25:41;;;;;;;;;;;;;;;15.97;100.00;100693.30;1701192;82;21010;-70
2022/07/20 02:28:08;;;;;;;5.55;5.05;;;;;;;15.97;100.00;100693.30;1721950;82;20105;-70
2022/07/20 02:30:36;;;;;;;5.30;5.00;;;;;;;15.92;100.00;100692.61;1713763;82;21511;-69
2022/07/20 02:33:03;;;;;;;5.40;4.95;;;;;;;15.92;100.00;100692.61;1657647;85;21059;-70
2022/07/20 02:35:29;;;;;;;6.20;4.70;;;;;;;15.94;100.00;100693.74;1657081;84;21034;-69
2022/07/20 02:37:55;;;;;;;6.25;5.65;;;;;;;15.93;100.00;100702.83;1666228;85;21003;-69
2022/07/20 02:40:22;;;;;;;5.78;5.22;;;;;;;15.97;100.00;100705.39;1663683;85;21091;-69
2022/07/20 02:42:48;;;;;;;8.30;4.65;;;;;;;15.99;100.00;100699.27;1635097;86;21039;-70
2022/07/20 02:45:14;;;;;;;4.47;4.28;;;;;;;16.05;100.00;100702.97;1706029;83;21023;-69
2022/07/20 02:47:46;;;;;;;3.65;3.50;;;;;;;16.08;100.00;100697.98;1707881;83;21066;-70
2022/07/20 02:50:14;;;;;;;4.25;3.85;;;;;;;16.14;100.00;100694.45;1695119;83;21608;-70
2022/07/20 02:52:42;;;;;;;4.80;4.50;;;;;;;16.29;100.00;100683.40;1708431;83;21483;-70
2022/07/20 02:55:10;;;;;;;3.17;3.05;;;;;;;16.29;100.00;100683.40;1661493;85;21038;-70
2022/07/20 02:57:36;;;;;;;3.37;3.12;;;;;;;16.38;100.00;100684.47;1634013;86;21060;-70
2022/07/20 03:00:06;;;;;;;5.90;3.25;;;;;;;16.53;100.00;100682.27;1660120;85;21023;-70
2022/07/20 03:02:53;;;;;;;5.03;3.27;;;;;;;16.82;100.00;100686.21;1619688;86;21189;-71
2022/07/20 03:05:19;;;;;;;2.87;2.60;;;;;;;17.37;100.00;100683.28;1687976;83;21061;-71
2022/07/20 03:07:46;;;;;;;2.52;2.37;;;;;;;18.13;100.00;100683.77;1692819;83;21049;-70
2022/07/20 03:10:12;;;;;;;2.27;2.12;;;;;;;18.77;97.97;100684.00;1685162;83;21030;-70
2022/07/20 03:12:40;;;;;;;2.35;2.22;;;;;;;19.30;91.75;100678.19;1676932;82;22155;-70
2022/07/20 03:15:10;;;;;;;2.42;2.30;;;;;;;19.72;88.78;100680.17;1672067;84;21075;-70
2022/07/20 03:17:47;;;;;;;2.92;2.08;;;;;;;20.14;85.24;100681.75;1671152;84;21084;-69
2022/07/20 03:20:27;;;;;;;1.70;1.57;;;;;;;20.55;83.22;100678.36;1671784;84;21038;-70
2022/07/20 03:22:55;;;;;;;1.70;1.60;;;;;;;21.10;81.26;100681.66;1679885;83;21009;-70
2022/07/20 03:25:23;;;;;;;2.12;1.67;;;;;;;21.72;77.89;100682.47;1710485;82;21006;-76
2022/07/20 03:27:55;;;;;;;1.52;1.52;;;;;;;22.26;74.00;100681.13;1697173;83;21023;-78
2022/07/20 03:30:24;;;;;;;1.10;1.10;;;;;;;22.59;71.47;100677.88;1685134;84;21010;-73
2022/07/20 03:32:51;;;;;;;1.57;1.47;;;;;;;22.89;69.67;100675.91;1718225;82;21002;-77
2022/07/20 03:35:19;;;;;;;1.57;1.40;;;;;;;23.17;69.01;100674.45;1700087;83;21057;-75
2022/07/20 03:37:45;;;;;;;1.02;1.00;;;;;;;23.42;65.56;100679.22;1656580;84;21089;-77
2022/07/20 03:40:12;;;;;;;1.60;1.42;;;;;;;23.53;64.14;100679.53;1711218;83;21113;-76
2022/07/20 03:42:38;;;;;;;2.67;1.52;;;;;;;23.61;63.90;100676.83;1696977;83;21020;-78
2022/07/20 03:45:06;;;;;;;2.77;1.70;;;;;;;23.65;63.08;100684.73;1697694;82;21517;-74
2022/07/20 03:47:33;;;;;;;2.27;0.98;;;;;;;23.66;63.02;100678.22;1653190;84;21374;-80
2022/07/20 03:50:01;;;;;;;1.47;1.42;;;;;;;23.73;62.74;100682.03;1669338;84;21090;-79
2022/07/20 03:52:27;;;;;;;3.37;0.98;;;;;;;23.84;61.61;100677.73;1673608;84;21585;-78
2022/07/20 03:54:53;;;;;;;2.80;1.20;;;;;;;23.80;61.07;100682.08;1671915;84;21856;-78
2022/07/20 03:57:19;;;;;;;2.75;1.15;;;;;;;23.87;61.79;100673.12;1698993;83;21498;-78
2022/07/20 03:59:47;;;;;;;1.72;1.32;;;;;;;24.08;62.07;100672.61;1708826;83;21358;-79
2022/07/20 04:02:13;;;;;;;0.93;0.65;;;;;;;24.42;60.59;100670.72;1673441;84;21006;-77
2022/07/20 04:04:40;;;;;;;2.72;1.50;;;;;;;24.63;57.86;100666.66;1666578;85;21090;-80
2022/07/20 04:07:06;;;;;;;1.22;1.12;;;;;;;24.58;58.35;100670.21;1665175;85;21493;-77
2022/07/20 04:09:45;;;;;;;1.42;1.32;;;;;;;24.59;58.22;100663.66;1634115;86;21084;-79
2022/07/20 04:12:22;;;;;;;1.35;1.30;;;;;;;24.66;57.28;100653.84;1645322;85;21540;-75
2022/07/20 04:14:51;;;;;;;2.55;1.40;;;;;;;24.73;58.48;100657.64;1644205;86;21500;-80
2022/07/20 04:17:19;;;;;;;1.60;1.50;;;;;;;24.84;56.62;100657.34;1645047;86;21064;-77
2022/07/20 04:19:48;;;;;;;2.75;2.33;;;;;;;24.87;56.48;100651.34;1642977;85;21024;-73
2022/07/20 04:22:15;;;;;;;2.33;2.08;;;;;;;24.87;57.06;100647.80;1643009;85;21153;-74
2022/07/20 04:24:43;;;;;;;2.30;2.10;;;;;;;24.77;56.50;100641.00;1641869;86;21574;-72
2022/07/20 04:27:09;;;;;;;2.45;2.33;;;;;;;24.77;56.62;100647.29;1666950;85;21101;-81
2022/07/20 04:29:35;;;;;;;2.52;2.00;;;;;;;24.76;56.67;100645.64;1671010;84;21054;-79
2022/07/20 04:32:02;;;;;;;2.65;2.50;;;;;;;24.84;56.15;100638.80;1671002;84;21075;-78
2022/07/20 04:34:28;;;;;;;2.62;1.65;;;;;;;24.82;56.13;100636.91;1686108;83;22137;-79
2022/07/20 04:36:55;;;;;;;1.60;1.50;;;;;;;24.79;55.65;100638.81;1707130;82;21060;-76
2022/07/20 04:39:22;;;;;;;2.80;1.47;;;;;;;24.86;55.36;100624.34;1669523;85;21113;-69
2022/07/20 04:41:48;;;;;;;2.47;1.40;;;;;;;24.90;55.52;100632.23;1697194;83;21034;-64
2022/07/20 04:44:15;;;;;;;1.40;1.30;;;;;;;25.00;54.26;100626.77;1669383;84;21102;-70
2022/07/20 04:46:41;;;;;;;1.12;1.00;;;;;;;25.01;54.43;100622.94;1666197;85;21022;-69
2022/07/20 04:49:09;;;;;;;1.40;1.22;;;;;;;24.98;54.89;100620.78;1636295;86;21030;-68
2022/07/20 04:51:37;;;;;;;0.98;0.90;;;;;;;25.17;55.33;100619.61;1634010;87;21218;-70
2022/07/20 04:54:04;;;;;;;1.00;1.00;;;;;;;25.54;55.43;100624.38;1639619;86;21054;-68
2022/07/20 04:56:31;;;;;;;1.00;0.90;;;;;;;25.92;52.76;100621.97;1639101;86;21059;-71
2022/07/20 04:58:57;;;;;;;1.00;1.00;;;;;;;26.10;52.07;100617.19;1672522;84;21084;-70
2022/07/20 05:01:25;;;;;;;1.20;1.02;;;;;;;26.16;51.33;100617.44;1679437;84;21064;-69
2022/07/20 05:03:52;;;;;;;1.60;1.10;;;;;;;26.19;51.97;100607.28;1671587;84;21066;-70
2022/07/20 05:06:21;;;;;;;1.90;0.80;;;;;;;26.24;50.35;100596.88;1673264;84;21057;-73
2022/07/20 05:08:47;;;;;;;1.82;0.75;;;;;;;26.07;50.18;100593.73;1666821;84;21053;-69
2022/07/20 05:11:14;;;;;;;2.10;0.93;;;;;;;25.82;51.10;100593.64;1674264;84;21108;-71
2022/07/20 05:13:40;;;;;;;0.80;0.80;;;;;;;25.69;51.43;100589.34;1663662;85;21093;-76
2022/07/20 05:16:08;;;;;;;0.65;0.55;;;;;;;25.61;52.19;100592.94;1673092;85;21026;-73
2022/07/20 05:18:34;;;;;;;0.40;0.40;;;;;;;25.59;51.72;100588.31;1666660;85;21105;-70
2022/07/20 05:21:02;;;;;;;1.72;0.90;;;;;;;25.53;53.27;100584.55;1666004;85;21534;-67
2022/07/20 05:23:30;;;;;;;1.80;1.05;;;;;;;25.50;52.07;100581.01;1685483;83;21479;-67
2022/07/20 05:25:56;;;;;;;1.30;0.98;;;;;;;25.43;54.18;100575.88;1694426;83;21019;-65
2022/07/20 05:28:22;;;;;;;2.83;1.15;;;;;;;25.57;54.62;100576.06;1643234;86;21148;-66
2022/07/20 05:30:50;;;;;;;1.50;0.80;;;;;;;25.82;52.84;100570.43;1700128;83;21059;-67
2022/07/20 05:33:18;;;;;;;1.32;0.70;;;;;;;26.01;52.62;100571.94;1703321;83;21143;-70
2022/07/20 05:35:45;;;;;;;6.53;0.85;;;;;;;26.29;52.19;100571.41;1667152;84;21039;-72
2022/07/20 05:38:13;;;;;;;2.58;1.10;;;;;;;26.60;51.46;100556.92;1642146;86;21049;-70
2022/07/20 05:40:41;;;;;;;3.80;2.25;;;;;;;26.75;50.45;100555.94;1640492;86;22114;-71
2022/07/20 05:43:07;;;;;;;2.83;1.00;;;;;;;26.73;49.71;100552.66;1642617;86;21053;-71
2022/07/20 05:45:35;;;;;;;2.02;1.05;;;;;;;26.66;49.45;100556.31;1659605;84;21035;-72
2022/07/20 05:48:02;;;;;;;4.83;1.60;;;;;;;26.66;49.94;100551.66;1669974;84;21016;-71
2022/07/20 05:50:29;;;;;;;6.83;6.17;;;;;;;26.64;52.18;100546.23;1709779;82;21100;-72
2022/07/20 05:52:55;;;;;;;0.90;0.70;;;;;;;26.78;50.63;100552.59;1702609;82;21054;-71
2022/07/20 05:55:21;;;;;;;2.70;1.42;;;;;;;26.99;48.54;100551.26;1706361;82;20991;-71
2022/07/20 05:57:49;;;;;;;4.72;4.40;;;;;;;27.09;49.86;100553.60;1646714;85;21587;-72
2022/07/20 06:00:17;;;;;;;1.80;1.70;;;;;;;27.25;48.50;100548.19;1645465;85;21516;-71
2022/07/20 06:02:43;;;;;;;1.07;1.02;;;;;;;27.23;48.01;100548.20;1671797;86;21545;-72
2022/07/20 06:05:10;;;;;;;2.00;1.17;;;;;;;27.10;47.77;100538.80;1671860;84;21549;-72
2022/07/20 06:07:37;;;;;;;0.98;0.98;;;;;;;26.97;47.84;100544.43;1657513;84;21061;-72
2022/07/20 06:10:05;;;;;;;0.95;0.60;;;;;;;26.91;47.45;100543.68;1671351;84;21530;-73
2022/07/20 06:12:32;;;;;;;1.40;1.05;;;;;;;27.05;47.61;100542.42;1662233;84;21029;-72
2022/07/20 06:15:00;;;;;;;1.17;0.65;;;;;;;27.24;47.23;100534.23;1670933;84;21037;-72
2022/07/20 06:17:37;;;;;;;0.53;0.50;;;;;;;27.33;47.15;100538.50;1660108;84;21549;-73
2022/07/20 06:20:12;;;;;;;1.05;0.90;;;;;;;27.33;47.12;100528.92;1670998;84;21046;-71
2022/07/20 06:22:40;;;;;;;0.70;0.65;;;;;;;27.22;47.21;100524.14;1671712;84;21078;-73
2022/07/20 06:25:10;;;;;;;2.85;0.45;;;;;;;27.11;47.02;100520.73;1672203;86;21203;-71
2022/07/20 06:27:38;;;;;;;1.07;0.40;;;;;;;26.99;47.57;100512.96;1665435;86;21005;-73
2022/07/20 06:30:08;;;;;;;0.75;0.75;;;;;;;26.97;47.96;100508.88;1671095;86;21041;-71
2022/07/20 06:32:35;;;;;;;3.22;0.98;;;;;;;27.15;46.97;100514.11;1669563;84;20978;-72
2022/07/20 06:35:04;;;;;;;0.95;0.60;;;;;;;27.28;46.77;100509.30;1680596;83;21020;-73
2022/07/20 06:37:31;;;;;;;0.95;0.40;;;;;;;27.42;46.28;100516.76;1685501;83;21570;-71
2022/07/20 06:39:57;;;;;;;1.55;0.50;;;;;;;27.55;45.64;100505.86;1685700;84;21028;-72
2022/07/20 06:42:24;;;;;;;0.93;0.85;;;;;;;27.64;45.01;100508.73;1684254;83;21036;-72
2022/07/20 06:44:50;;;;;;;0.50;0.50;;;;;;;27.63;44.15;100502.19;1684222;83;21121;-73
2022/07/20 06:47:17;;;;;;;0.72;0.72;;;;;;;27.48;45.78;100510.92;1682348;84;21074;-74
2022/07/20 06:49:44;;;;;;;2.10;0.70;;;;;;;27.41;44.79;100511.02;1685958;84;21112;-73
2022/07/20 06:52:11;;;;;;;3.58;0.70;;;;;;;27.26;45.52;100506.05;1684025;84;21046;-72
2022/07/20 06:54:38;;;;;;;0.75;0.50;;;;;;;27.16;45.40;100504.78;1684138;84;21066;-72
2022/07/20 06:57:04;;;;;;;0.95;0.70;;;;;;;26.97;46.50;100500.14;1684280;83;21058;-73
2022/07/20 06:59:31;;;;;;;0.80;0.53;;;;;;;26.92;46.74;100501.56;1683118;84;21046;-72
2022/07/20 07:01:57;;;;;;;2.08;0.80;;;;;;;26.95;46.47;100496.05;1696389;84;21071;-72
2022/07/20 07:04:23;;;;;;;1.37;0.82;;;;;;;26.92;47.30;100496.09;1685644;84;21070;-74
2022/07/20 07:06:50;;;;;;;0.75;0.68;;;;;;;27.01;47.70;100485.29;1669034;85;21492;-72
2022/07/20 07:09:16;;;;;;;1.75;1.12;;;;;;;27.19;46.15;100495.99;1699932;83;21051;-74
2022/07/20 07:11:44;;;;;;;0.68;0.68;;;;;;;27.24;45.87;100483.61;1697054;81;21037;-73
2022/07/20 07:14:12;;;;;;;1.47;1.07;;;;;;;27.32;45.84;100483.52;1732397;81;21008;-72
2022/07/20 07:16:40;;;;;;;1.12;0.90;;;;;;;27.25;46.29;100479.78;1738442;81;21521;-72
2022/07/20 07:19:07;;;;;;;2.50;1.10;;;;;;;27.25;46.15;100467.47;1736699;81;21041;-72
2022/07/20 07:21:35;;;;;;;2.45;1.25;;;;;;;27.14;45.41;100470.90;1728790;81;21126;-72
2022/07/20 07:24:01;;;;;;;1.35;0.88;;;;;;;27.07;45.42;100464.15;1706797;83;21633;-72
2022/07/20 07:26:27;;;;;;;1.12;1.00;;;;;;;26.93;45.50;100461.34;1700669;83;21078;-73
2022/07/20 07:28:53;;;;;;;2.15;1.00;;;;;;;26.88;45.86;100459.51;1703586;83;21034;-74
2022/07/20 07:31:20;;;;;;;5.58;1.47;;;;;;;26.79;45.99;100446.23;1694629;83;21022;-72
2022/07/20 07:33:47;;;;;;;1.00;0.88;;;;;;;26.64;46.31;100440.41;1698534;83;21033;-72
2022/07/20 07:36:14;;;;;;;1.32;1.22;;;;;;;26.52;46.96;100438.61;1670893;84;21057;-72
2022/07/20 07:38:41;;;;;;;2.50;1.47;;;;;;;26.33;46.35;100437.20;1699246;83;21045;-73
2022/07/20 07:41:09;;;;;;;0.93;0.90;;;;;;;26.05;47.41;100441.62;1690589;83;20986;-73
2022/07/20 07:43:36;;;;;;;1.60;1.25;;;;;;;25.94;48.24;100429.45;1701855;83;21133;-73
2022/07/20 07:46:02;;;;;;;2.50;2.20;;;;;;;25.93;48.24;100431.10;1677185;84;21479;-73
2022/07/20 07:48:30;;;;;;;1.10;1.10;;;;;;;25.79;48.72;100430.38;1663463;84;22254;-72
2022/07/20 07:50:57;;;;;;;2.65;1.50;;;;;;;25.63;48.32;100430.26;1699654;83;21009;-72
2022/07/20 07:53:24;;;;;;;2.45;1.37;;;;;;;25.50;48.52;100420.00;1667256;84;21274;-73
2022/07/20 07:55:51;;;;;;;6.00;1.40;;;;;;;25.35;49.22;100420.38;1681922;82;21045;-72
2022/07/20 07:58:18;;;;;;;1.85;1.37;;;;;;;25.28;49.46;100414.47;1628795;86;21131;-73
2022/07/20 08:00:45;;;;;;;3.70;1.57;;;;;;;25.33;49.83;100414.96;1644013;84;20965;-72
2022/07/20 08:03:12;;;;;;;1.50;1.40;;;;;;;25.40;49.98;100417.63;1682079;84;21060;-73
2022/07/20 08:05:39;;;;;;;1.35;1.25;;;;;;;25.53;50.84;100414.80;1657880;84;21089;-72
2022/07/20 08:08:12;;;;;;;1.40;1.30;;;;;;;25.64;49.77;100407.34;1670019;84;21026;-73
2022/07/20 08:10:42;;;;;;;1.80;1.20;;;;;;;25.73;50.80;100411.59;1674626;84;20987;-73
2022/07/20 08:13:11;;;;;;;1.37;1.27;;;;;;;25.83;49.74;100398.67;1640784;84;21006;-71
2022/07/20 08:15:38;;;;;;;1.57;1.47;;;;;;;25.88;48.69;100398.34;1670203;84;21063;-73
2022/07/20 08:18:05;;;;;;;1.30;1.22;;;;;;;25.91;47.56;100399.95;1673034;84;21220;-73
2022/07/20 08:20:32;;;;;;;4.08;1.30;;;;;;;25.88;48.91;100393.72;1671693;84;22228;-73
2022/07/20 08:22:59;;;;;;;1.52;1.42;;;;;;;25.90;48.63;100396.14;1674770;84;20989;-73
2022/07/20 08:25:26;;;;;;;2.22;1.27;;;;;;;25.91;49.68;100385.49;1666442;85;21097;-73
2022/07/20 08:27:54;;;;;;;2.27;2.00;;;;;;;25.95;49.00;100389.30;1653005;85;21069;-74
2022/07/20 08:30:21;;;;;;;3.02;1.65;;;;;;;25.95;48.37;100386.00;1665454;85;21034;-72
2022/07/20 08:32:47;;;;;;;4.42;1.85;;;;;;;25.93;48.23;100380.58;1666331;85;21538;-71
2022/07/20 08:35:13;;;;;;;2.25;1.45;;;;;;;25.90;47.89;100378.39;1642972;85;21124;-72
2022/07/20 08:37:40;;;;;;;2.17;1.32;;;;;;;25.90;48.27;100372.93;1669001;85;21565;-74
2022/07/20 08:40:08;;;;;;;3.02;1.70;;;;;;;25.92;48.71;100362.55;1667324;84;21006;-73
2022/07/20 08:42:34;;;;;;;2.58;1.75;;;;;;;25.95;49.02;100362.80;1666812;84;21029;-73
2022/07/20 08:45:01;;;;;;;2.10;2.00;;;;;;;26.00;48.10;100358.64;1677976;83;21065;-72
2022/07/20 08:47:30;;;;;;;1.75;1.37;;;;;;;26.03;47.48;100355.87;1686130;83;21137;-71
2022/07/20 08:49:58;;;;;;;2.35;1.55;;;;;;;26.04;47.47;100353.42;1705969;83;21515;-73
2022/07/20 08:52:24;;;;;;;1.77;1.67;;;;;;;26.10;46.87;100348.70;1686059;83;21044;-72
2022/07/20 08:54:51;;;;;;;1.92;1.75;;;;;;;26.13;46.80;100333.11;1709363;83;21038;-73
2022/07/20 08:57:18;;;;;;;2.58;2.47;;;;;;;26.17;47.08;100328.69;1698189;83;21028;-73
2022/07/20 08:59:47;;;;;;;2.47;1.92;;;;;;;26.20;46.74;100328.91;1698273;83;21527;-72
2022/07/20 09:02:16;;;;;;;1.42;1.35;;;;;;;26.25;47.17;100323.92;1696911;83;21488;-74
2022/07/20 09:04:56;;;;;;;0.93;0.93;;;;;;;26.21;46.56;100318.79;1692926;83;21115;-71
2022/07/20 09:07:45;;;;;;;1.37;1.27;;;;;;;26.15;46.85;100315.31;1699913;83;21049;-74
2022/07/20 09:10:17;;;;;;;2.80;1.27;;;;;;;26.17;47.67;100306.83;1698660;83;20996;-73
2022/07/20 09:13:13;;;;;;;6.87;1.47;;;;;;;26.14;46.86;100306.04;1700079;83;20976;-72
2022/07/20 09:15:48;;;;;;;;;;;;;;;26.10;47.26;100300.34;1674469;84;21072;-73
2022/07/20 09:18:22;;;;;;;4.70;2.05;;;;;;;25.98;47.40;100290.41;1671975;84;20168;-73
2022/07/20 09:21:00;;;;;;;5.45;1.57;;;;;;;25.86;47.93;100292.14;1685148;85;20980;-73
2022/07/20 09:23:44;;;;;;;2.37;2.12;;;;;;;25.79;46.43;100301.27;1687155;82;21016;-72
2022/07/20 09:26:14;;;;;;;2.12;1.17;;;;;;;25.64;47.25;100292.14;1692418;83;21469;-73
2022/07/20 09:28:50;;;;;;;4.67;2.05;;;;;;;25.62;48.17;100286.16;1690578;83;21044;-73
2022/07/20 09:31:28;;;;;;;1.92;0.95;;;;;;;25.60;48.20;100282.91;1693165;83;21106;-73
2022/07/20 09:34:14;;;;;;;2.08;1.20;;;;;;;25.58;48.46;100281.55;1680524;83;21672;-73
2022/07/20 09:36:44;;;;;;;3.52;1.40;;;;;;;25.61;49.25;100276.89;1714470;82;21035;-72
2022/07/20 09:39:14;;;;;;;1.92;1.65;;;;;;;25.61;48.91;100264.05;1669644;84;21339;-73
2022/07/20 09:41:44;;;;;;;1.45;1.25;;;;;;;25.63;48.82;100262.41;1716659;82;21085;-73
2022/07/20 09:44:25;;;;;;;1.32;0.88;;;;;;;25.69;48.47;100248.14;1685662;84;21028;-73
2022/07/20 09:46:51;;;;;;;1.55;1.45;;;;;;;25.77;48.27;100257.07;1684456;84;21499;-73
2022/07/20 09:49:24;;;;;;;3.62;1.42;;;;;;;25.80;48.24;100242.81;1691157;84;21028;-72
2022/07/20 09:51:59;;;;;;;1.35;1.22;;;;;;;25.88;47.82;100233.16;1682163;84;21330;-72
2022/07/20 09:54:26;;;;;;;2.35;1.22;;;;;;;25.96;47.61;100231.19;1677434;84;21086;-73
2022/07/20 09:56:54;;;;;;;4.20;1.40;;;;;;;26.00;47.62;100225.39;1706114;82;20994;-72
2022/07/20 09:59:22;;;;;;;0.98;0.98;;;;;;;25.99;47.82;100220.49;1693961;83;21045;-74
2022/07/20 10:01:54;;;;;;;2.90;1.52;;;;;;;25.97;47.75;100208.22;1688274;83;21026;-73
2022/07/20 10:04:22;;;;;;;1.95;1.27;;;;;;;25.94;48.00;100210.20;1714746;82;22077;-72
2022/07/20 10:06:52;;;;;;;2.15;1.90;;;;;;;25.91;48.41;100203.35;1675326;83;21034;-73
2022/07/20 10:09:19;;;;;;;1.80;1.70;;;;;;;25.96;48.11;100197.06;1670247;84;21159;-73
2022/07/20 10:11:47;;;;;;;2.65;2.17;;;;;;;25.98;48.03;100197.57;1689436;81;21051;-73
2022/07/20 10:14:21;;;;;;;2.90;2.15;;;;;;;25.99;48.02;100180.06;1693857;83;21059;-72
2022/07/20 10:16:54;;;;;;;2.30;2.20;;;;;;;26.08;47.98;100172.83;1681768;83;21068;-72
2022/07/20 10:20:36;;;;;;;2.17;1.95;;;;;;;26.30;47.90;100165.95;1809164;79;22889;-73
2022/07/20 10:23:26;;;;;;;8.60;1.52;;;;;;;26.31;48.01;100159.37;1760137;80;21083;-74
2022/07/20 10:25:53;;;;;;;3.35;1.37;;;;;;;26.35;47.75;100159.02;1732132;81;21116;-74
2022/07/20 10:28:36;;;;;;;5.97;1.50;;;;;;;26.36;47.13;100150.53;1742149;81;20984;-74
2022/07/20 10:31:08;;;;;;;2.75;1.65;;;;;;;26.41;47.04;100151.83;1731259;81;21295;-74
2022/07/20 10:33:38;;;;;;;1.17;1.10;;;;;;;26.52;46.59;100141.54;1725631;81;21099;-73
2022/07/20 10:39:43;;;;;;;1.42;1.32;;;;;;;26.71;46.71;100118.27;1714584;81;21563;-72
2022/07/20 10:42:40;;;;;;;2.83;2.62;;;;;;;26.78;45.56;100115.13;1707302;81;21031;-74
2022/07/20 10:45:23;;;;;;;1.98;1.77;;;;;;;26.90;45.33;100105.05;1731088;80;21576;-73
2022/07/20 10:48:04;;;;;;;3.98;1.25;;;;;;;26.92;44.98;100106.38;1732033;81;21232;-73
2022/07/20 10:50:36;;;;;;;3.08;1.60;;;;;;;26.96;44.38;100096.45;1734793;81;21560;-74
2022/07/20 10:53:17;;;;;;;1.70;1.30;;;;;;;26.94;44.17;100093.21;1723239;81;21488;-74
2022/07/20 10:55:59;;;;;;;1.35;1.17;;;;;;;26.96;44.33;100095.65;1732102;81;20968;-75
2022/07/20 10:58:31;;;;;;;4.55;1.40;;;;;;;27.05;44.10;100082.88;1720311;82;21498;-75
2022/07/20 11:01:07;;;;;;;2.00;1.15;;;;;;;27.12;44.29;100081.09;1723026;81;21006;-74
2022/07/20 11:03:39;;;;;;;;;;;;;;;27.14;43.86;100083.79;1725485;82;21000;-72
2022/07/20 11:06:13;;;;;;;2.52;1.30;;;;;;;27.10;43.99;100079.22;1713979;82;20099;-73
2022/07/20 11:08:51;;;;;;;1.52;1.42;;;;;;;27.04;44.21;100074.41;1724422;81;21604;-73
2022/07/20 11:11:27;;;;;;;1.85;1.75;;;;;;;27.09;44.42;100068.05;1725707;80;21035;-74
2022/07/20 11:13:54;;;;;;;4.25;1.95;;;;;;;27.23;44.55;100058.44;1688366;84;20979;-74
2022/07/20 11:16:24;;;;;;;1.40;1.15;;;;;;;27.33;44.37;100054.13;1697258;83;21543;-74
2022/07/20 11:18:52;;;;;;;5.25;2.00;;;;;;;27.38;44.48;100046.62;1689301;83;21538;-73
2022/07/20 11:21:34;;;;;;;2.80;1.27;;;;;;;27.45;43.82;100039.93;1682607;84;21011;-73
2022/07/20 11:24:01;;;;;;;3.40;1.32;;;;;;;27.41;44.06;100027.95;1681348;83;21567;-75
2022/07/20 11:26:28;;;;;;;1.75;1.60;;;;;;;27.30;43.06;100026.83;1649641;85;21116;-73
2022/07/20 11:28:57;;;;;;;2.25;1.80;;;;;;;27.22;43.78;100024.80;1687334;83;21118;-74
2022/07/20 11:31:28;;;;;;;2.55;1.45;;;;;;;27.24;43.68;100010.80;1687519;83;21036;-74
2022/07/20 11:33:58;;;;;;;1.27;1.17;;;;;;;27.29;43.83;100011.52;1689036;83;21123;-73
2022/07/20 11:36:29;;;;;;;1.30;1.12;;;;;;;27.29;43.56;100001.94;1681571;83;21559;-74
2022/07/20 11:38:59;;;;;;;2.58;1.60;;;;;;;27.28;43.48;100005.02;1684446;83;21099;-72
2022/07/20 11:41:36;;;;;;;3.33;0.98;;;;;;;27.26;43.63;99990.27;1686883;83;21055;-74
2022/07/20 11:44:06;;;;;;;5.60;1.60;;;;;;;27.29;43.66;100005.25;1688546;83;21215;-73